sensor_id;sensor_type;location;lat;lon;timestamp;P1;durP1;ratioP1;P2;durP2;ratioP2
51048;SDS011;37084;55.228;36.450;2022-09-03T00:02:14;1.90;;;1.08;;
51048;SDS011;37084;55.228;36.450;2022-09-03T00:05:31;1.58;;;1.20;;
51048;SDS011;37084;55.228;36.450;2022-09-03T00:08:41;1.50;;;1.05;;
51048;SDS011;37084;55.228;36.450;2022-09-03T00:11:51;1.67;;;1.13;;
51048;SDS011;37084;55.228;36.450;2022-09-03T00:14:59;1.75;;;1.45;;
51048;SDS011;37084;55.228;36.450;2022-09-03T00:18:23;2.03;;;1.20;;
51048;SDS011;37084;55.228;36.450;2022-09-03T00:21:38;1.80;;;1.20;;
51048;SDS011;37084;55.228;36.450;2022-09-03T00:24:43;3.28;;;1.35;;
51048;SDS011;37084;55.228;36.450;2022-09-03T00:27:46;1.17;;;1.02;;
51048;SDS011;37084;55.228;36.450;2022-09-03T00:30:55;1.23;;;1.00;;
51048;SDS011;37084;55.228;36.450;2022-09-03T00:37:33;1.60;;;1.00;;
51048;SDS011;37084;55.228;36.450;2022-09-03T00:50:40;1.42;;;1.08;;
51048;SDS011;37084;55.228;36.450;2022-09-03T00:54:11;2.10;;;1.20;;
51048;SDS011;37084;55.228;36.450;2022-09-03T00:57:45;2.60;;;1.38;;
51048;SDS011;37084;55.228;36.450;2022-09-03T01:00:56;2.10;;;1.40;;
51048;SDS011;37084;55.228;36.450;2022-09-03T01:04:00;2.38;;;1.38;;
51048;SDS011;37084;55.228;36.450;2022-09-03T01:20:28;1.55;;;1.10;;
51048;SDS011;37084;55.228;36.450;2022-09-03T01:30:20;3.80;;;1.30;;
51048;SDS011;37084;55.228;36.450;2022-09-03T01:33:34;1.25;;;0.90;;
51048;SDS011;37084;55.228;36.450;2022-09-03T01:46:41;3.17;;;1.05;;
51048;SDS011;37084;55.228;36.450;2022-09-03T01:59:47;3.22;;;1.50;;
51048;SDS011;37084;55.228;36.450;2022-09-03T02:03:12;2.03;;;1.30;;
51048;SDS011;37084;55.228;36.450;2022-09-03T02:06:14;2.28;;;1.20;;
51048;SDS011;37084;55.228;36.450;2022-09-03T02:09:15;2.20;;;1.23;;
51048;SDS011;37084;55.228;36.450;2022-09-03T02:12:17;1.77;;;1.38;;
51048;SDS011;37084;55.228;36.450;2022-09-03T02:15:20;2.38;;;1.35;;
51048;SDS011;37084;55.228;36.450;2022-09-03T02:18:23;2.13;;;1.23;;
51048;SDS011;37084;55.228;36.450;2022-09-03T02:21:28;1.13;;;1.00;;
51048;SDS011;37084;55.228;36.450;2022-09-03T02:24:34;2.13;;;1.25;;
51048;SDS011;37084;55.228;36.450;2022-09-03T02:27:37;1.83;;;1.23;;
51048;SDS011;37084;55.228;36.450;2022-09-03T02:30:38;2.05;;;1.48;;
51048;SDS011;37084;55.228;36.450;2022-09-03T02:33:40;2.00;;;1.33;;
51048;SDS011;37084;55.228;36.450;2022-09-03T02:36:44;2.38;;;1.33;;
51048;SDS011;37084;55.228;36.450;2022-09-03T02:39:46;2.35;;;1.75;;
51048;SDS011;37084;55.228;36.450;2022-09-03T02:42:47;3.00;;;1.60;;
51048;SDS011;37084;55.228;36.450;2022-09-03T02:45:50;2.15;;;1.70;;
51048;SDS011;37084;55.228;36.450;2022-09-03T02:48:55;2.75;;;1.73;;
51048;SDS011;37084;55.228;36.450;2022-09-03T02:51:57;3.38;;;1.77;;
51048;SDS011;37084;55.228;36.450;2022-09-03T02:55:00;4.43;;;1.55;;
51048;SDS011;37084;55.228;36.450;2022-09-03T02:58:04;2.75;;;1.77;;
51048;SDS011;37084;55.228;36.450;2022-09-03T03:01:06;3.45;;;1.52;;
51048;SDS011;37084;55.228;36.450;2022-09-03T03:04:07;2.90;;;1.23;;
51048;SDS011;37084;55.228;36.450;2022-09-03T03:07:09;2.53;;;1.50;;
51048;SDS011;37084;55.228;36.450;2022-09-03T03:10:10;2.63;;;1.63;;
51048;SDS011;37084;55.228;36.450;2022-09-03T03:13:12;2.20;;;1.40;;
51048;SDS011;37084;55.228;36.450;2022-09-03T03:16:14;2.28;;;1.65;;
51048;SDS011;37084;55.228;36.450;2022-09-03T03:19:16;2.60;;;1.70;;
51048;SDS011;37084;55.228;36.450;2022-09-03T03:22:17;3.85;;;1.55;;
51048;SDS011;37084;55.228;36.450;2022-09-03T03:25:19;2.38;;;1.38;;
51048;SDS011;37084;55.228;36.450;2022-09-03T03:28:20;1.80;;;1.30;;
51048;SDS011;37084;55.228;36.450;2022-09-03T03:31:22;3.22;;;1.23;;
51048;SDS011;37084;55.228;36.450;2022-09-03T03:34:23;4.63;;;1.50;;
51048;SDS011;37084;55.228;36.450;2022-09-03T03:37:25;2.25;;;1.27;;
51048;SDS011;37084;55.228;36.450;2022-09-03T03:40:26;2.08;;;1.23;;
51048;SDS011;37084;55.228;36.450;2022-09-03T03:43:27;2.53;;;1.55;;
51048;SDS011;37084;55.228;36.450;2022-09-03T03:46:30;2.38;;;1.42;;
51048;SDS011;37084;55.228;36.450;2022-09-03T03:49:32;2.28;;;1.38;;
51048;SDS011;37084;55.228;36.450;2022-09-03T03:52:33;2.55;;;1.48;;
51048;SDS011;37084;55.228;36.450;2022-09-03T03:55:34;1.75;;;1.30;;
51048;SDS011;37084;55.228;36.450;2022-09-03T03:58:36;2.25;;;1.50;;
51048;SDS011;37084;55.228;36.450;2022-09-03T04:01:42;3.22;;;1.60;;
51048;SDS011;37084;55.228;36.450;2022-09-03T04:04:43;2.35;;;1.40;;
51048;SDS011;37084;55.228;36.450;2022-09-03T04:07:44;1.98;;;1.38;;
51048;SDS011;37084;55.228;36.450;2022-09-03T04:10:46;1.52;;;1.42;;
51048;SDS011;37084;55.228;36.450;2022-09-03T04:13:49;2.10;;;1.40;;
51048;SDS011;37084;55.228;36.450;2022-09-03T04:16:50;2.28;;;1.10;;
51048;SDS011;37084;55.228;36.450;2022-09-03T04:19:51;1.58;;;1.10;;
51048;SDS011;37084;55.228;36.450;2022-09-03T04:22:53;1.60;;;1.00;;
51048;SDS011;37084;55.228;36.450;2022-09-03T04:25:54;1.83;;;1.05;;
51048;SDS011;37084;55.228;36.450;2022-09-03T04:32:21;1.48;;;1.20;;
51048;SDS011;37084;55.228;36.450;2022-09-03T04:35:41;1.77;;;0.90;;
51048;SDS011;37084;55.228;36.450;2022-09-03T04:38:43;1.77;;;0.77;;
51048;SDS011;37084;55.228;36.450;2022-09-03T04:41:46;3.05;;;1.33;;
51048;SDS011;37084;55.228;36.450;2022-09-03T04:44:47;1.10;;;1.00;;
51048;SDS011;37084;55.228;36.450;2022-09-03T04:47:58;1.48;;;1.25;;
51048;SDS011;37084;55.228;36.450;2022-09-03T04:51:01;1.35;;;1.08;;
51048;SDS011;37084;55.228;36.450;2022-09-03T04:54:12;1.35;;;1.13;;
51048;SDS011;37084;55.228;36.450;2022-09-03T05:00:44;1.60;;;1.25;;
51048;SDS011;37084;55.228;36.450;2022-09-03T05:03:46;1.75;;;1.10;;
51048;SDS011;37084;55.228;36.450;2022-09-03T05:06:48;2.47;;;1.13;;
51048;SDS011;37084;55.228;36.450;2022-09-03T05:09:51;1.77;;;1.23;;
51048;SDS011;37084;55.228;36.450;2022-09-03T05:12:59;1.60;;;1.27;;
51048;SDS011;37084;55.228;36.450;2022-09-03T05:16:03;1.63;;;1.20;;
51048;SDS011;37084;55.228;36.450;2022-09-03T05:19:05;1.85;;;1.10;;
51048;SDS011;37084;55.228;36.450;2022-09-03T05:22:07;1.80;;;1.23;;
51048;SDS011;37084;55.228;36.450;2022-09-03T05:25:09;1.92;;;1.20;;
51048;SDS011;37084;55.228;36.450;2022-09-03T05:28:11;1.60;;;1.30;;
51048;SDS011;37084;55.228;36.450;2022-09-03T05:31:17;1.95;;;1.33;;
51048;SDS011;37084;55.228;36.450;2022-09-03T05:34:19;1.90;;;1.38;;
51048;SDS011;37084;55.228;36.450;2022-09-03T05:37:20;1.40;;;1.30;;
51048;SDS011;37084;55.228;36.450;2022-09-03T05:40:22;1.65;;;1.20;;
51048;SDS011;37084;55.228;36.450;2022-09-03T05:43:23;1.30;;;1.00;;
51048;SDS011;37084;55.228;36.450;2022-09-03T05:46:26;1.10;;;0.98;;
51048;SDS011;37084;55.228;36.450;2022-09-03T05:49:31;2.05;;;1.17;;
51048;SDS011;37084;55.228;36.450;2022-09-03T05:52:33;1.70;;;1.10;;
51048;SDS011;37084;55.228;36.450;2022-09-03T05:55:35;1.23;;;1.02;;
51048;SDS011;37084;55.228;36.450;2022-09-03T05:58:37;1.70;;;1.25;;
51048;SDS011;37084;55.228;36.450;2022-09-03T06:01:42;1.88;;;1.10;;
51048;SDS011;37084;55.228;36.450;2022-09-03T06:04:45;1.20;;;1.10;;
51048;SDS011;37084;55.228;36.450;2022-09-03T06:07:46;2.25;;;1.20;;
51048;SDS011;37084;55.228;36.450;2022-09-03T06:10:49;1.25;;;1.00;;
51048;SDS011;37084;55.228;36.450;2022-09-03T06:13:51;1.10;;;1.00;;
51048;SDS011;37084;55.228;36.450;2022-09-03T06:16:55;1.30;;;1.02;;
51048;SDS011;37084;55.228;36.450;2022-09-03T06:20:03;1.73;;;1.20;;
51048;SDS011;37084;55.228;36.450;2022-09-03T06:23:05;1.15;;;0.98;;
51048;SDS011;37084;55.228;36.450;2022-09-03T06:26:10;0.95;;;0.80;;
51048;SDS011;37084;55.228;36.450;2022-09-03T06:29:13;3.00;;;1.52;;
51048;SDS011;37084;55.228;36.450;2022-09-03T06:32:14;1.00;;;0.90;;
51048;SDS011;37084;55.228;36.450;2022-09-03T06:35:17;1.55;;;0.90;;
51048;SDS011;37084;55.228;36.450;2022-09-03T06:38:18;1.58;;;0.70;;
51048;SDS011;37084;55.228;36.450;2022-09-03T06:41:22;1.10;;;1.00;;
51048;SDS011;37084;55.228;36.450;2022-09-03T06:44:27;0.80;;;0.80;;
51048;SDS011;37084;55.228;36.450;2022-09-03T06:47:28;1.02;;;0.93;;
51048;SDS011;37084;55.228;36.450;2022-09-03T06:50:30;1.10;;;1.00;;
51048;SDS011;37084;55.228;36.450;2022-09-03T06:53:32;0.80;;;0.80;;
51048;SDS011;37084;55.228;36.450;2022-09-03T06:56:35;1.27;;;0.93;;
51048;SDS011;37084;55.228;36.450;2022-09-03T06:59:37;0.80;;;0.80;;
51048;SDS011;37084;55.228;36.450;2022-09-03T07:02:43;1.35;;;0.88;;
51048;SDS011;37084;55.228;36.450;2022-09-03T07:05:44;1.05;;;0.95;;
51048;SDS011;37084;55.228;36.450;2022-09-03T07:08:46;1.20;;;1.10;;
51048;SDS011;37084;55.228;36.450;2022-09-03T07:11:47;1.58;;;1.02;;
51048;SDS011;37084;55.228;36.450;2022-09-03T07:14:49;0.73;;;0.73;;
51048;SDS011;37084;55.228;36.450;2022-09-03T07:17:50;0.95;;;0.95;;
51048;SDS011;37084;55.228;36.450;2022-09-03T07:20:57;0.77;;;0.77;;
51048;SDS011;37084;55.228;36.450;2022-09-03T07:23:59;0.90;;;0.90;;
51048;SDS011;37084;55.228;36.450;2022-09-03T07:27:02;0.80;;;0.80;;
51048;SDS011;37084;55.228;36.450;2022-09-03T07:30:05;1.35;;;0.82;;
51048;SDS011;37084;55.228;36.450;2022-09-03T07:33:09;1.65;;;0.82;;
51048;SDS011;37084;55.228;36.450;2022-09-03T07:36:12;1.30;;;0.85;;
51048;SDS011;37084;55.228;36.450;2022-09-03T07:39:14;0.73;;;0.60;;
51048;SDS011;37084;55.228;36.450;2022-09-03T07:42:17;0.88;;;0.70;;
51048;SDS011;37084;55.228;36.450;2022-09-03T07:45:20;1.48;;;0.50;;
51048;SDS011;37084;55.228;36.450;2022-09-03T07:48:22;1.08;;;1.00;;
51048;SDS011;37084;55.228;36.450;2022-09-03T07:51:26;0.70;;;0.52;;
51048;SDS011;37084;55.228;36.450;2022-09-03T07:54:29;0.93;;;0.52;;
51048;SDS011;37084;55.228;36.450;2022-09-03T07:57:31;1.27;;;0.52;;
51048;SDS011;37084;55.228;36.450;2022-09-03T08:00:32;1.52;;;0.60;;
51048;SDS011;37084;55.228;36.450;2022-09-03T08:03:34;0.75;;;0.75;;
51048;SDS011;37084;55.228;36.450;2022-09-03T08:06:36;0.65;;;0.65;;
51048;SDS011;37084;55.228;36.450;2022-09-03T08:09:39;1.10;;;0.60;;
51048;SDS011;37084;55.228;36.450;2022-09-03T08:12:41;0.40;;;0.40;;
51048;SDS011;37084;55.228;36.450;2022-09-03T08:15:42;4.93;;;0.82;;
51048;SDS011;37084;55.228;36.450;2022-09-03T08:18:43;1.23;;;0.60;;
51048;SDS011;37084;55.228;36.450;2022-09-03T08:21:47;2.05;;;0.50;;
51048;SDS011;37084;55.228;36.450;2022-09-03T08:24:53;0.68;;;0.50;;
51048;SDS011;37084;55.228;36.450;2022-09-03T08:27:58;0.55;;;0.55;;
51048;SDS011;37084;55.228;36.450;2022-09-03T08:31:09;1.15;;;0.80;;
51048;SDS011;37084;55.228;36.450;2022-09-03T08:34:18;0.90;;;0.60;;
51048;SDS011;37084;55.228;36.450;2022-09-03T08:37:19;0.50;;;0.50;;
51048;SDS011;37084;55.228;36.450;2022-09-03T08:40:27;1.27;;;0.50;;
51048;SDS011;37084;55.228;36.450;2022-09-03T08:43:29;0.57;;;0.50;;
51048;SDS011;37084;55.228;36.450;2022-09-03T08:46:54;1.25;;;0.50;;
51048;SDS011;37084;55.228;36.450;2022-09-03T08:49:57;1.00;;;0.50;;
51048;SDS011;37084;55.228;36.450;2022-09-03T08:56:49;0.43;;;0.43;;
51048;SDS011;37084;55.228;36.450;2022-09-03T08:59:53;0.40;;;0.40;;
51048;SDS011;37084;55.228;36.450;2022-09-03T09:06:21;0.70;;;0.70;;
51048;SDS011;37084;55.228;36.450;2022-09-03T09:09:42;1.10;;;0.60;;
51048;SDS011;37084;55.228;36.450;2022-09-03T09:12:58;0.50;;;0.50;;
51048;SDS011;37084;55.228;36.450;2022-09-03T09:16:21;2.65;;;0.60;;
51048;SDS011;37084;55.228;36.450;2022-09-03T09:22:54;0.57;;;0.38;;
51048;SDS011;37084;55.228;36.450;2022-09-03T09:26:00;0.70;;;0.50;;
51048;SDS011;37084;55.228;36.450;2022-09-03T09:29:07;0.65;;;0.65;;
51048;SDS011;37084;55.228;36.450;2022-09-03T09:32:12;1.23;;;0.40;;
51048;SDS011;37084;55.228;36.450;2022-09-03T09:35:14;0.60;;;0.40;;
51048;SDS011;37084;55.228;36.450;2022-09-03T09:38:27;0.68;;;0.50;;
51048;SDS011;37084;55.228;36.450;2022-09-03T09:41:36;1.50;;;0.52;;
51048;SDS011;37084;55.228;36.450;2022-09-03T09:44:38;0.50;;;0.50;;
51048;SDS011;37084;55.228;36.450;2022-09-03T09:47:42;0.63;;;0.57;;
51048;SDS011;37084;55.228;36.450;2022-09-03T09:50:44;2.13;;;0.50;;
51048;SDS011;37084;55.228;36.450;2022-09-03T09:53:45;1.08;;;0.52;;
51048;SDS011;37084;55.228;36.450;2022-09-03T09:56:57;0.50;;;0.50;;
51048;SDS011;37084;55.228;36.450;2022-09-03T10:00:10;0.40;;;0.40;;
51048;SDS011;37084;55.228;36.450;2022-09-03T10:03:16;0.85;;;0.40;;
51048;SDS011;37084;55.228;36.450;2022-09-03T10:06:24;0.30;;;0.30;;
51048;SDS011;37084;55.228;36.450;2022-09-03T10:13:23;0.65;;;0.50;;
51048;SDS011;37084;55.228;36.450;2022-09-03T10:16:31;0.45;;;0.45;;
51048;SDS011;37084;55.228;36.450;2022-09-03T10:23:27;0.40;;;0.40;;
51048;SDS011;37084;55.228;36.450;2022-09-03T10:26:29;1.80;;;0.55;;
51048;SDS011;37084;55.228;36.450;2022-09-03T10:29:34;0.73;;;0.50;;
51048;SDS011;37084;55.228;36.450;2022-09-03T10:42:56;0.88;;;0.50;;
51048;SDS011;37084;55.228;36.450;2022-09-03T10:46:15;1.15;;;0.60;;
51048;SDS011;37084;55.228;36.450;2022-09-03T10:49:30;0.40;;;0.40;;
51048;SDS011;37084;55.228;36.450;2022-09-03T11:02:56;1.27;;;0.50;;
51048;SDS011;37084;55.228;36.450;2022-09-03T11:06:31;0.63;;;0.50;;
51048;SDS011;37084;55.228;36.450;2022-09-03T11:12:45;2.15;;;0.60;;
51048;SDS011;37084;55.228;36.450;2022-09-03T11:15:54;2.30;;;0.75;;
51048;SDS011;37084;55.228;36.450;2022-09-03T11:19:16;1.05;;;0.40;;
51048;SDS011;37084;55.228;36.450;2022-09-03T11:22:18;1.50;;;0.63;;
51048;SDS011;37084;55.228;36.450;2022-09-03T11:25:27;2.15;;;1.00;;
51048;SDS011;37084;55.228;36.450;2022-09-03T11:35:01;1.02;;;0.45;;
51048;SDS011;37084;55.228;36.450;2022-09-03T11:41:28;1.67;;;1.35;;
51048;SDS011;37084;55.228;36.450;2022-09-03T11:44:39;3.38;;;1.00;;
51048;SDS011;37084;55.228;36.450;2022-09-03T11:47:42;2.80;;;0.60;;
51048;SDS011;37084;55.228;36.450;2022-09-03T11:50:51;1.05;;;0.30;;
51048;SDS011;37084;55.228;36.450;2022-09-03T11:54:00;2.70;;;0.70;;
51048;SDS011;37084;55.228;36.450;2022-09-03T11:57:20;1.52;;;0.68;;
51048;SDS011;37084;55.228;36.450;2022-09-03T12:00:25;3.60;;;1.20;;
51048;SDS011;37084;55.228;36.450;2022-09-03T12:03:43;1.75;;;1.00;;
51048;SDS011;37084;55.228;36.450;2022-09-03T12:10:08;1.42;;;0.60;;
51048;SDS011;37084;55.228;36.450;2022-09-03T12:13:16;0.70;;;0.60;;
51048;SDS011;37084;55.228;36.450;2022-09-03T12:16:31;1.75;;;0.70;;
51048;SDS011;37084;55.228;36.450;2022-09-03T12:22:53;2.47;;;0.55;;
51048;SDS011;37084;55.228;36.450;2022-09-03T12:26:04;0.40;;;0.40;;
51048;SDS011;37084;55.228;36.450;2022-09-03T12:29:23;0.50;;;0.50;;
51048;SDS011;37084;55.228;36.450;2022-09-03T12:32:30;1.95;;;0.85;;
51048;SDS011;37084;55.228;36.450;2022-09-03T12:35:36;1.38;;;0.60;;
51048;SDS011;37084;55.228;36.450;2022-09-03T12:38:37;3.22;;;0.60;;
51048;SDS011;37084;55.228;36.450;2022-09-03T12:41:50;4.10;;;1.10;;
51048;SDS011;37084;55.228;36.450;2022-09-03T12:44:53;0.68;;;0.68;;
51048;SDS011;37084;55.228;36.450;2022-09-03T12:47:54;1.33;;;0.60;;
51048;SDS011;37084;55.228;36.450;2022-09-03T12:51:02;0.70;;;0.50;;
51048;SDS011;37084;55.228;36.450;2022-09-03T12:54:03;1.20;;;0.40;;
51048;SDS011;37084;55.228;36.450;2022-09-03T12:57:07;2.75;;;0.93;;
51048;SDS011;37084;55.228;36.450;2022-09-03T13:00:09;2.78;;;0.60;;
51048;SDS011;37084;55.228;36.450;2022-09-03T13:03:16;0.98;;;0.70;;
51048;SDS011;37084;55.228;36.450;2022-09-03T13:06:45;2.63;;;1.10;;
51048;SDS011;37084;55.228;36.450;2022-09-03T13:09:59;4.38;;;0.93;;
51048;SDS011;37084;55.228;36.450;2022-09-03T13:13:16;1.20;;;0.60;;
51048;SDS011;37084;55.228;36.450;2022-09-03T13:30:14;3.70;;;0.95;;
51048;SDS011;37084;55.228;36.450;2022-09-03T13:33:31;2.15;;;0.70;;
51048;SDS011;37084;55.228;36.450;2022-09-03T13:37:00;1.35;;;0.60;;
51048;SDS011;37084;55.228;36.450;2022-09-03T13:40:15;1.10;;;0.68;;
51048;SDS011;37084;55.228;36.450;2022-09-03T13:43:40;4.00;;;1.15;;
51048;SDS011;37084;55.228;36.450;2022-09-03T13:46:47;2.67;;;1.20;;
51048;SDS011;37084;55.228;36.450;2022-09-03T13:53:35;1.42;;;0.70;;
51048;SDS011;37084;55.228;36.450;2022-09-03T14:00:06;0.75;;;0.60;;
51048;SDS011;37084;55.228;36.450;2022-09-03T14:07:00;1.40;;;0.50;;
51048;SDS011;37084;55.228;36.450;2022-09-03T14:13:35;4.90;;;1.98;;
51048;SDS011;37084;55.228;36.450;2022-09-03T14:16:49;4.43;;;3.28;;
51048;SDS011;37084;55.228;36.450;2022-09-03T14:20:19;3.08;;;1.98;;
51048;SDS011;37084;55.228;36.450;2022-09-03T14:23:48;3.60;;;1.20;;
51048;SDS011;37084;55.228;36.450;2022-09-03T14:26:56;7.82;;;1.08;;
51048;SDS011;37084;55.228;36.450;2022-09-03T14:30:04;1.23;;;0.60;;
51048;SDS011;37084;55.228;36.450;2022-09-03T14:33:58;2.67;;;0.70;;
51048;SDS011;37084;55.228;36.450;2022-09-03T14:36:55;1.13;;;0.55;;
51048;SDS011;37084;55.228;36.450;2022-09-03T14:43:24;5.25;;;1.17;;
51048;SDS011;37084;55.228;36.450;2022-09-03T15:30:52;5.60;;;1.33;;
51048;SDS011;37084;55.228;36.450;2022-09-03T15:34:14;4.07;;;2.20;;
51048;SDS011;37084;55.228;36.450;2022-09-03T15:44:43;10.52;;;4.90;;
51048;SDS011;37084;55.228;36.450;2022-09-03T15:47:49;13.43;;;6.53;;
51048;SDS011;37084;55.228;36.450;2022-09-03T15:51:09;6.68;;;2.13;;
51048;SDS011;37084;55.228;36.450;2022-09-03T15:57:59;4.13;;;2.17;;
51048;SDS011;37084;55.228;36.450;2022-09-03T16:08:18;26.60;;;13.90;;
51048;SDS011;37084;55.228;36.450;2022-09-03T16:11:31;14.23;;;6.55;;
51048;SDS011;37084;55.228;36.450;2022-09-03T16:14:40;30.70;;;13.93;;
51048;SDS011;37084;55.228;36.450;2022-09-03T16:18:04;39.83;;;18.38;;
51048;SDS011;37084;55.228;36.450;2022-09-03T16:30:59;6.82;;;3.65;;
51048;SDS011;37084;55.228;36.450;2022-09-03T16:48:18;4.68;;;1.42;;
51048;SDS011;37084;55.228;36.450;2022-09-03T16:51:54;2.08;;;1.08;;
51048;SDS011;37084;55.228;36.450;2022-09-03T16:58:53;4.65;;;3.15;;
51048;SDS011;37084;55.228;36.450;2022-09-03T17:02:11;2.15;;;1.50;;
51048;SDS011;37084;55.228;36.450;2022-09-03T17:30:20;8.07;;;3.55;;
51048;SDS011;37084;55.228;36.450;2022-09-03T17:36:55;11.52;;;6.32;;
51048;SDS011;37084;55.228;36.450;2022-09-03T17:40:15;5.45;;;3.38;;
51048;SDS011;37084;55.228;36.450;2022-09-03T17:43:30;4.10;;;2.47;;
51048;SDS011;37084;55.228;36.450;2022-09-03T17:49:47;12.60;;;5.45;;
51048;SDS011;37084;55.228;36.450;2022-09-03T17:53:23;9.65;;;5.00;;
51048;SDS011;37084;55.228;36.450;2022-09-03T17:56:47;10.13;;;4.57;;
51048;SDS011;37084;55.228;36.450;2022-09-03T17:59:58;4.05;;;2.35;;
51048;SDS011;37084;55.228;36.450;2022-09-03T18:03:18;7.35;;;2.22;;
51048;SDS011;37084;55.228;36.450;2022-09-03T18:07:07;5.07;;;2.70;;
51048;SDS011;37084;55.228;36.450;2022-09-03T18:10:31;4.80;;;2.20;;
51048;SDS011;37084;55.228;36.450;2022-09-03T18:17:26;8.65;;;4.72;;
51048;SDS011;37084;55.228;36.450;2022-09-03T18:20:55;5.22;;;2.60;;
51048;SDS011;37084;55.228;36.450;2022-09-03T18:24:39;2.13;;;1.40;;
51048;SDS011;37084;55.228;36.450;2022-09-03T18:28:08;6.65;;;1.15;;
51048;SDS011;37084;55.228;36.450;2022-09-03T18:31:42;2.40;;;1.35;;
51048;SDS011;37084;55.228;36.450;2022-09-03T18:35:02;3.38;;;1.42;;
51048;SDS011;37084;55.228;36.450;2022-09-03T18:38:26;5.82;;;1.90;;
51048;SDS011;37084;55.228;36.450;2022-09-03T18:52:36;2.00;;;1.08;;
51048;SDS011;37084;55.228;36.450;2022-09-03T18:56:18;1.35;;;1.23;;
51048;SDS011;37084;55.228;36.450;2022-09-03T19:07:10;2.35;;;1.20;;
51048;SDS011;37084;55.228;36.450;2022-09-03T19:21:55;1.95;;;1.10;;
51048;SDS011;37084;55.228;36.450;2022-09-03T19:25:36;2.20;;;1.10;;
51048;SDS011;37084;55.228;36.450;2022-09-03T19:28:55;2.55;;;1.20;;
51048;SDS011;37084;55.228;36.450;2022-09-03T19:32:23;2.17;;;1.10;;
51048;SDS011;37084;55.228;36.450;2022-09-03T19:36:53;2.97;;;1.60;;
51048;SDS011;37084;55.228;36.450;2022-09-03T19:43:43;1.98;;;1.30;;
51048;SDS011;37084;55.228;36.450;2022-09-03T19:47:11;1.58;;;1.05;;
51048;SDS011;37084;55.228;36.450;2022-09-03T19:50:40;1.50;;;1.17;;
51048;SDS011;37084;55.228;36.450;2022-09-03T19:54:03;1.38;;;1.23;;
51048;SDS011;37084;55.228;36.450;2022-09-03T19:57:24;1.80;;;1.30;;
51048;SDS011;37084;55.228;36.450;2022-09-03T20:00:45;1.38;;;1.13;;
51048;SDS011;37084;55.228;36.450;2022-09-03T20:07:58;3.50;;;1.50;;
51048;SDS011;37084;55.228;36.450;2022-09-03T20:11:20;4.13;;;1.10;;
51048;SDS011;37084;55.228;36.450;2022-09-03T20:14:22;2.53;;;1.58;;
51048;SDS011;37084;55.228;36.450;2022-09-03T20:21:12;3.38;;;1.70;;
51048;SDS011;37084;55.228;36.450;2022-09-03T20:24:41;1.85;;;1.58;;
51048;SDS011;37084;55.228;36.450;2022-09-03T20:34:44;5.38;;;2.90;;
51048;SDS011;37084;55.228;36.450;2022-09-03T20:51:38;5.25;;;2.97;;
51048;SDS011;37084;55.228;36.450;2022-09-03T20:54:46;4.03;;;2.30;;
51048;SDS011;37084;55.228;36.450;2022-09-03T20:57:56;4.57;;;2.17;;
51048;SDS011;37084;55.228;36.450;2022-09-03T21:01:08;3.05;;;1.70;;
51048;SDS011;37084;55.228;36.450;2022-09-03T21:10:50;2.83;;;1.70;;
51048;SDS011;37084;55.228;36.450;2022-09-03T21:13:58;3.25;;;1.95;;
51048;SDS011;37084;55.228;36.450;2022-09-03T21:23:47;5.03;;;2.78;;
51048;SDS011;37084;55.228;36.450;2022-09-03T21:27:13;7.97;;;3.03;;
51048;SDS011;37084;55.228;36.450;2022-09-03T21:30:20;3.30;;;1.73;;
51048;SDS011;37084;55.228;36.450;2022-09-03T21:33:25;3.35;;;1.98;;
51048;SDS011;37084;55.228;36.450;2022-09-03T21:36:28;2.33;;;1.58;;
51048;SDS011;37084;55.228;36.450;2022-09-03T21:39:50;3.60;;;1.63;;
51048;SDS011;37084;55.228;36.450;2022-09-03T21:43:08;2.90;;;1.63;;
51048;SDS011;37084;55.228;36.450;2022-09-03T21:46:14;2.92;;;1.50;;
51048;SDS011;37084;55.228;36.450;2022-09-03T21:50:04;6.75;;;1.50;;
51048;SDS011;37084;55.228;36.450;2022-09-03T21:53:19;2.33;;;1.60;;
51048;SDS011;37084;55.228;36.450;2022-09-03T22:03:21;2.38;;;1.60;;
51048;SDS011;37084;55.228;36.450;2022-09-03T22:06:27;1.98;;;1.23;;
51048;SDS011;37084;55.228;36.450;2022-09-03T22:12:49;4.78;;;2.10;;
51048;SDS011;37084;55.228;36.450;2022-09-03T22:16:22;2.50;;;1.17;;
51048;SDS011;37084;55.228;36.450;2022-09-03T22:19:31;2.72;;;1.27;;
51048;SDS011;37084;55.228;36.450;2022-09-03T22:22:41;2.08;;;1.10;;
51048;SDS011;37084;55.228;36.450;2022-09-03T22:25:58;2.83;;;1.40;;
51048;SDS011;37084;55.228;36.450;2022-09-03T22:29:19;2.67;;;1.10;;
51048;SDS011;37084;55.228;36.450;2022-09-03T22:42:11;2.15;;;1.40;;
51048;SDS011;37084;55.228;36.450;2022-09-03T22:52:00;3.35;;;1.40;;
51048;SDS011;37084;55.228;36.450;2022-09-03T22:58:22;1.55;;;1.30;;
51048;SDS011;37084;55.228;36.450;2022-09-03T23:01:33;2.35;;;1.40;;
51048;SDS011;37084;55.228;36.450;2022-09-03T23:08:14;3.00;;;1.85;;
51048;SDS011;37084;55.228;36.450;2022-09-03T23:14:37;3.50;;;1.30;;
51048;SDS011;37084;55.228;36.450;2022-09-03T23:17:50;2.58;;;1.70;;
51048;SDS011;37084;55.228;36.450;2022-09-03T23:21:21;3.15;;;1.83;;
51048;SDS011;37084;55.228;36.450;2022-09-03T23:24:36;3.28;;;1.33;;
51048;SDS011;37084;55.228;36.450;2022-09-03T23:27:49;2.05;;;1.50;;
51048;SDS011;37084;55.228;36.450;2022-09-03T23:31:03;2.38;;;1.90;;
51048;SDS011;37084;55.228;36.450;2022-09-03T23:34:20;2.53;;;1.42;;
51048;SDS011;37084;55.228;36.450;2022-09-03T23:40:49;4.80;;;1.63;;
51048;SDS011;37084;55.228;36.450;2022-09-03T23:57:40;2.40;;;1.80;;
